Time;durP1;ratioP1;P1;durP2;ratioP2;P2;SDS_P1;SDS_P2;PMS_P1;PMS_P2;Temp;Humidity;BMP_temperature;BMP_pressure;BME280_temperature;BME280_humidity;BME280_pressure;Samples;Min_cycle;Max_cycle;Signal;HPM_P1;HPM_P2
2021/09/21 00:02:59;;;;;;;3.20;2.40;;;;;;;9.22;99.85;100636.59;6286007;28;20045;-76
2021/09/21 00:06:01;;;;;;;2.60;2.40;;;;;;;9.22;99.14;100640.97;6302887;28;20580;-76
2021/09/21 00:09:02;;;;;;;3.40;2.42;;;;;;;9.21;99.28;100637.53;6269316;28;20086;-75
2021/09/21 00:12:03;;;;;;;4.78;2.72;;;;;;;9.15;96.02;100629.16;6269437;28;20124;-75
2021/09/21 00:15:08;;;;;;;3.28;2.28;;;;;;;9.11;95.70;100640.63;6302556;28;20041;-75
2021/09/21 00:18:08;;;;;;;3.00;2.28;;;;;;;9.11;99.42;100645.84;6270260;28;20519;-75
2021/09/21 00:21:09;;;;;;;2.25;2.00;;;;;;;9.00;98.31;100649.75;6302552;28;20043;-75
2021/09/21 00:24:10;;;;;;;3.03;2.20;;;;;;;8.90;95.59;100648.50;6270550;28;20067;-76
2021/09/21 00:27:11;;;;;;;4.25;2.17;;;;;;;8.92;100.00;100651.03;6285579;28;20503;-75
2021/09/21 00:30:14;;;;;;;4.88;2.50;;;;;;;8.85;100.00;100651.31;6302538;28;20043;-76
2021/09/21 00:33:18;;;;;;;4.20;2.35;;;;;;;8.82;100.00;100650.59;6269032;28;20411;-75
2021/09/21 00:36:20;;;;;;;3.55;2.53;;;;;;;8.88;100.00;100652.91;6270098;28;20049;-75
2021/09/21 00:39:21;;;;;;;3.13;2.40;;;;;;;8.92;100.00;100661.44;6270215;28;20052;-76
2021/09/21 00:42:28;;;;;;;3.30;2.40;;;;;;;8.85;100.00;100655.63;6285474;28;20041;-75
2021/09/21 00:45:30;;;;;;;4.50;2.50;;;;;;;8.66;100.00;100659.03;6301918;28;20072;-75
2021/09/21 00:48:31;;;;;;;3.17;2.33;;;;;;;8.63;98.49;100660.97;6269035;28;20075;-75
2021/09/21 00:51:32;;;;;;;3.70;2.40;;;;;;;8.53;99.23;100654.47;6270166;28;20041;-75
2021/09/21 00:54:33;;;;;;;3.28;2.47;;;;;;;8.47;98.59;100655.56;6285083;28;20064;-75
2021/09/21 00:57:36;;;;;;;3.25;2.22;;;;;;;8.43;98.63;100661.81;6285876;28;20560;-76
2021/09/21 01:00:37;;;;;;;3.55;2.20;;;;;;;8.33;100.00;100663.06;6274926;28;20430;-75
2021/09/21 01:03:38;;;;;;;3.95;2.60;;;;;;;8.22;100.00;100663.53;6307083;28;20110;-76
2021/09/21 01:06:39;;;;;;;3.40;2.50;;;;;;;8.17;100.00;100668.03;6306864;28;20152;-76
2021/09/21 01:09:42;;;;;;;4.53;2.63;;;;;;;8.08;100.00;100659.72;6274701;28;20487;-76
2021/09/21 01:12:44;;;;;;;5.07;3.00;;;;;;;7.95;100.00;100655.94;6274761;28;20052;-76
2021/09/21 01:15:45;;;;;;;4.18;2.70;;;;;;;7.82;100.00;100659.91;6274423;28;20101;-76
2021/09/21 01:18:47;;;;;;;3.83;2.47;;;;;;;7.75;100.00;100658.50;6274617;28;20487;-76
2021/09/21 01:21:48;;;;;;;4.30;2.38;;;;;;;7.63;100.00;100654.63;6273179;28;20045;-76
2021/09/21 01:24:49;;;;;;;3.85;2.45;;;;;;;7.61;100.00;100665.06;6289659;28;20102;-75
2021/09/21 01:27:49;;;;;;;3.08;2.60;;;;;;;7.63;100.00;100667.59;6274430;28;20268;-76
2021/09/21 01:30:50;;;;;;;3.45;2.60;;;;;;;7.60;100.00;100673.78;6306433;28;20037;-75
2021/09/21 01:33:53;;;;;;;4.18;2.58;;;;;;;7.56;100.00;100660.97;6306264;28;20040;-75
2021/09/21 01:36:54;;;;;;;4.50;3.17;;;;;;;7.59;100.00;100671.22;6273942;28;20450;-75
2021/09/21 01:39:55;;;;;;;3.13;2.40;;;;;;;7.60;100.00;100671.19;6274120;28;20472;-75
2021/09/21 01:42:56;;;;;;;4.47;2.70;;;;;;;7.53;100.00;100672.31;6273876;28;20488;-75
2021/09/21 01:45:57;;;;;;;3.78;2.30;;;;;;;7.61;100.00;100672.00;6272743;28;20044;-75
2021/09/21 01:48:58;;;;;;;3.45;2.38;;;;;;;7.56;100.00;100672.19;6305969;28;20111;-75
2021/09/21 01:52:12;;;;;;;5.18;2.63;;;;;;;7.58;100.00;100679.94;6272666;28;20136;-75
2021/09/21 01:55:21;;;;;;;3.63;2.50;;;;;;;7.55;100.00;100674.84;6301973;28;20145;-75
2021/09/21 02:01:33;;;;;;;3.80;2.60;;;;;;;7.44;100.00;100689.09;6303435;28;20037;-75
2021/09/21 02:04:34;;;;;;;3.03;2.40;;;;;;;7.39;100.00;100683.22;6273559;28;20068;-75
2021/09/21 02:07:35;;;;;;;5.95;2.75;;;;;;;7.42;100.00;100684.88;6288810;28;20047;-75
2021/09/21 02:10:36;;;;;;;4.97;2.67;;;;;;;7.41;100.00;100683.16;6273235;28;20051;-75
2021/09/21 02:13:37;;;;;;;3.88;2.45;;;;;;;7.41;100.00;100697.00;6288460;28;20049;-75
2021/09/21 02:16:38;;;;;;;4.30;2.80;;;;;;;7.40;100.00;100694.47;6273145;28;20068;-75
2021/09/21 02:19:40;;;;;;;4.55;2.58;;;;;;;7.39;100.00;100696.22;6271879;28;20059;-75
2021/09/21 02:22:41;;;;;;;4.78;2.70;;;;;;;7.40;100.00;100702.25;6271887;28;20041;-76
2021/09/21 02:25:42;;;;;;;5.32;3.00;;;;;;;7.35;100.00;100704.16;6273129;28;20051;-75
2021/09/21 02:28:43;;;;;;;5.00;3.00;;;;;;;7.35;100.00;100715.41;6272937;28;20045;-72
2021/09/21 02:31:44;;;;;;;6.10;3.00;;;;;;;7.36;100.00;100709.28;6272759;28;20072;-72
2021/09/21 02:34:45;;;;;;;3.60;2.75;;;;;;;7.37;100.00;100721.38;6272650;28;20389;-73
2021/09/21 02:37:47;;;;;;;4.10;2.90;;;;;;;7.37;100.00;100715.31;6304901;28;20052;-72
2021/09/21 02:40:48;;;;;;;4.47;2.88;;;;;;;7.31;100.00;100720.75;6272561;28;20045;-72
2021/09/21 02:43:50;;;;;;;3.10;2.77;;;;;;;7.22;100.00;100724.53;6304608;28;20045;-72
2021/09/21 02:46:51;;;;;;;6.97;2.88;;;;;;;7.28;100.00;100723.47;6287755;28;20526;-72
2021/09/21 02:49:52;;;;;;;4.13;2.92;;;;;;;7.34;100.00;100731.03;6272313;28;20091;-72
2021/09/21 02:52:53;;;;;;;4.63;2.70;;;;;;;7.32;100.00;100723.28;6272316;28;20041;-72
2021/09/21 02:55:55;;;;;;;5.60;3.33;;;;;;;7.37;100.00;100718.78;6303996;28;20072;-72
2021/09/21 02:58:55;;;;;;;6.07;2.92;;;;;;;7.30;100.00;100726.84;6304364;28;20041;-73
2021/09/21 03:01:56;;;;;;;4.25;3.00;;;;;;;7.30;100.00;100719.91;6287380;28;20380;-72
2021/09/21 03:05:01;;;;;;;4.28;3.00;;;;;;;7.14;100.00;100727.41;6271951;28;20043;-72
2021/09/21 03:08:12;;;;;;;3.40;2.70;;;;;;;6.99;100.00;100717.56;6271772;28;20511;-72
2021/09/21 03:11:17;;;;;;;3.80;2.63;;;;;;;6.99;100.00;100738.34;6271814;28;20484;-73
2021/09/21 03:17:38;;;;;;;7.03;2.85;;;;;;;6.97;100.00;100738.38;6284633;28;20441;-72
2021/09/21 03:20:38;;;;;;;6.85;2.97;;;;;;;6.97;100.00;100747.91;6286465;28;20086;-72
2021/09/21 03:23:39;;;;;;;4.63;3.05;;;;;;;6.87;100.00;100752.56;6303873;28;20073;-72
2021/09/21 03:26:40;;;;;;;4.65;2.88;;;;;;;6.79;100.00;100750.22;6271387;28;20052;-72
2021/09/21 03:29:41;;;;;;;4.97;2.88;;;;;;;6.77;100.00;100756.38;6271383;28;20458;-73
2021/09/21 03:32:42;;;;;;;4.28;3.17;;;;;;;6.70;100.00;100753.16;6270225;28;20102;-72
2021/09/21 03:35:43;;;;;;;5.32;3.17;;;;;;;6.59;100.00;100758.72;6303288;28;20044;-72
2021/09/21 03:38:43;;;;;;;5.20;2.83;;;;;;;6.50;100.00;100751.22;6269979;28;20075;-72
2021/09/21 03:41:44;;;;;;;4.63;2.80;;;;;;;6.43;100.00;100760.94;6286582;28;20399;-72
2021/09/21 03:44:46;;;;;;;5.50;3.05;;;;;;;6.43;100.00;100770.47;6271307;28;20044;-72
2021/09/21 03:47:46;;;;;;;4.82;3.25;;;;;;;6.42;100.00;100771.34;6303197;28;20045;-73
2021/09/21 03:50:47;;;;;;;5.35;3.28;;;;;;;6.35;100.00;100772.47;6286492;28;20044;-72
2021/09/21 03:53:48;;;;;;;4.38;3.30;;;;;;;6.29;100.00;100770.91;6303059;28;20065;-73
2021/09/21 03:56:49;;;;;;;6.30;3.40;;;;;;;6.37;100.00;100784.47;6269562;28;20041;-72
2021/09/21 03:59:49;;;;;;;7.40;3.13;;;;;;;6.27;100.00;100790.00;6302917;28;20087;-73
2021/09/21 04:02:50;;;;;;;4.93;3.47;;;;;;;6.21;100.00;100785.84;6270776;28;20048;-72
2021/09/21 04:05:51;;;;;;;5.05;3.47;;;;;;;6.20;100.00;100784.19;6269292;28;20487;-72
2021/09/21 04:08:53;;;;;;;4.70;3.40;;;;;;;6.23;100.00;100787.50;6286067;28;20048;-73
2021/09/21 04:11:54;;;;;;;6.40;3.45;;;;;;;6.16;100.00;100785.16;6270458;28;20124;-72
2021/09/21 04:14:55;;;;;;;4.78;3.25;;;;;;;6.21;100.00;100784.09;6270682;28;20044;-73
2021/09/21 04:17:55;;;;;;;5.45;3.42;;;;;;;6.25;100.00;100787.47;6270240;28;20081;-72
2021/09/21 04:20:56;;;;;;;5.43;3.70;;;;;;;6.27;100.00;100788.25;6285845;28;20037;-73
2021/09/21 04:23:57;;;;;;;5.40;3.42;;;;;;;6.22;100.00;100787.56;6285738;28;20048;-76
2021/09/21 04:26:58;;;;;;;8.50;3.75;;;;;;;6.17;100.00;100799.81;6270164;28;20072;-73
2021/09/21 04:30:01;;;;;;;3.80;2.95;;;;;;;6.19;100.00;100800.59;6285601;28;20056;-74
2021/09/21 04:33:02;;;;;;;4.78;3.35;;;;;;;6.25;100.00;100815.97;6269135;28;20049;-73
2021/09/21 04:36:07;;;;;;;6.80;3.72;;;;;;;6.24;100.00;100814.28;6285447;28;20052;-72
2021/09/21 04:39:08;;;;;;;5.38;3.13;;;;;;;6.24;100.00;100819.47;6269192;28;20040;-72
2021/09/21 04:42:10;;;;;;;4.95;3.72;;;;;;;6.29;100.00;100816.72;6270079;28;20052;-71
2021/09/21 04:45:11;;;;;;;7.25;3.55;;;;;;;6.32;100.00;100820.06;6270028;28;20102;-71
2021/09/21 04:48:12;;;;;;;7.45;3.50;;;;;;;6.35;100.00;100825.16;6268846;28;20103;-72
2021/09/21 04:51:13;;;;;;;7.10;3.55;;;;;;;6.34;100.00;100825.19;6268766;28;20045;-72
2021/09/21 04:54:14;;;;;;;5.18;3.55;;;;;;;6.32;100.00;100824.38;6269815;28;20060;-73
2021/09/21 04:57:16;;;;;;;7.85;4.07;;;;;;;6.27;100.00;100824.53;6268544;28;20037;-71
2021/09/21 05:00:18;;;;;;;5.53;3.90;;;;;;;6.27;100.00;100827.13;6301577;28;20041;-71
2021/09/21 05:03:19;;;;;;;5.63;3.95;;;;;;;6.31;100.00;100833.91;6284068;28;20037;-71
2021/09/21 05:06:19;;;;;;;5.80;3.80;;;;;;;6.36;100.00;100826.00;6269668;28;20057;-71
2021/09/21 05:09:20;;;;;;;7.75;3.88;;;;;;;6.39;100.00;100821.56;6269593;28;20510;-72
2021/09/21 05:12:21;;;;;;;5.97;3.83;;;;;;;6.46;100.00;100830.00;6301741;28;20045;-71
2021/09/21 05:15:22;;;;;;;5.55;3.83;;;;;;;6.47;100.00;100828.28;6301662;28;20044;-72
2021/09/21 05:18:23;;;;;;;7.15;4.00;;;;;;;6.57;100.00;100827.06;6269467;28;20044;-72
2021/09/21 05:21:24;;;;;;;4.97;3.42;;;;;;;6.55;100.00;100821.94;6268243;28;20123;-71
2021/09/21 05:24:25;;;;;;;5.72;3.90;;;;;;;6.73;100.00;100838.63;6268431;28;20095;-71
2021/09/21 05:27:26;;;;;;;5.60;4.05;;;;;;;6.77;100.00;100845.41;6284969;28;20049;-72
2021/09/21 05:30:27;;;;;;;5.65;3.58;;;;;;;6.82;100.00;100853.91;6268193;28;20091;-71
2021/09/21 05:33:27;;;;;;;7.30;4.15;;;;;;;6.84;100.00;100849.50;6268189;28;20044;-72
2021/09/21 05:36:29;;;;;;;4.00;2.90;;;;;;;6.96;100.00;100855.19;6301326;28;20546;-71
2021/09/21 05:39:29;;;;;;;6.70;4.00;;;;;;;7.13;100.00;100858.06;6301482;28;20048;-72
2021/09/21 05:42:30;;;;;;;8.65;3.65;;;;;;;7.26;100.00;100854.16;6268023;28;20513;-71
2021/09/21 05:45:31;;;;;;;3.78;3.10;;;;;;;7.32;100.00;100855.69;6288286;28;20047;-71
2021/09/21 05:48:32;;;;;;;4.60;3.30;;;;;;;7.41;100.00;100857.97;6289064;28;20048;-72
2021/09/21 05:51:33;;;;;;;4.97;3.08;;;;;;;7.42;100.00;100856.22;6306448;28;20467;-72
2021/09/21 05:54:34;;;;;;;6.80;3.85;;;;;;;7.51;100.00;100857.66;6305574;28;20075;-71
2021/09/21 05:57:35;;;;;;;4.97;3.30;;;;;;;7.58;100.00;100859.97;6273395;28;20045;-71
2021/09/21 06:00:36;;;;;;;5.90;3.42;;;;;;;7.62;99.50;100861.56;6272082;28;20052;-71
2021/09/21 06:03:37;;;;;;;7.55;3.60;;;;;;;7.78;97.94;100864.47;6273347;28;20110;-71
2021/09/21 06:06:38;;;;;;;9.07;3.42;;;;;;;7.90;97.50;100868.34;6288662;28;20045;-72
2021/09/21 06:09:38;;;;;;;4.28;2.78;;;;;;;8.05;97.40;100862.59;6273196;28;20037;-71
2021/09/21 06:12:39;;;;;;;8.88;3.22;;;;;;;8.23;91.00;100875.78;6288589;28;20443;-71
2021/09/21 06:15:40;;;;;;;7.07;2.83;;;;;;;8.38;89.56;100874.34;6305231;28;20411;-71
2021/09/21 06:18:41;;;;;;;6.78;3.00;;;;;;;8.53;89.05;100872.94;6305194;28;20697;-71
2021/09/21 06:21:41;;;;;;;4.65;2.97;;;;;;;8.70;91.19;100872.28;6305085;28;20128;-72
2021/09/21 06:24:42;;;;;;;7.97;3.10;;;;;;;8.78;85.49;100878.84;6305047;28;20111;-71
2021/09/21 06:27:43;;;;;;;4.40;3.13;;;;;;;8.84;83.54;100885.56;6271427;28;20045;-71
2021/09/21 06:30:44;;;;;;;4.82;2.95;;;;;;;8.95;84.39;100883.38;6304995;28;20036;-72
2021/09/21 06:33:45;;;;;;;5.43;3.00;;;;;;;9.08;83.40;100883.72;6272595;28;20499;-71
2021/09/21 06:36:45;;;;;;;6.40;2.67;;;;;;;9.16;81.14;100880.78;6304821;28;20041;-71
2021/09/21 06:39:46;;;;;;;7.75;2.70;;;;;;;9.19;79.95;100894.53;6271322;28;20114;-71
2021/09/21 06:42:48;;;;;;;3.72;2.40;;;;;;;9.18;79.05;100890.25;6271164;28;20045;-71
2021/09/21 06:45:54;;;;;;;5.43;3.25;;;;;;;9.31;78.96;100895.78;6287990;28;20045;-72
2021/09/21 06:48:55;;;;;;;6.20;2.90;;;;;;;9.44;77.39;100886.50;6272236;28;20288;-71
2021/09/21 06:51:57;;;;;;;4.43;2.72;;;;;;;9.62;76.37;100894.47;6272174;28;20041;-71
2021/09/21 06:54:58;;;;;;;5.45;2.42;;;;;;;9.68;75.98;100899.41;6271224;28;20077;-71
2021/09/21 06:57:59;;;;;;;3.72;2.65;;;;;;;9.81;75.33;100900.53;6270443;28;20381;-71
2021/09/21 07:01:00;;;;;;;4.28;2.72;;;;;;;10.01;77.83;100899.66;6304398;28;20036;-71
2021/09/21 07:04:00;;;;;;;5.95;2.58;;;;;;;10.17;75.42;100898.94;6270635;28;20037;-71
2021/09/21 07:07:01;;;;;;;5.85;2.60;;;;;;;10.31;73.37;100916.63;6303981;28;20128;-71
2021/09/21 07:10:03;;;;;;;4.60;2.53;;;;;;;10.40;71.34;100914.44;6271822;28;20128;-71
2021/09/21 07:13:04;;;;;;;4.73;2.70;;;;;;;10.42;68.99;100917.81;6303922;28;20072;-71
2021/09/21 07:16:05;;;;;;;3.88;2.28;;;;;;;10.64;69.29;100922.00;6286684;28;20095;-71
2021/09/21 07:19:05;;;;;;;3.80;2.35;;;;;;;10.91;68.98;100919.00;6286871;28;20446;-72
2021/09/21 07:22:06;;;;;;;4.13;2.25;;;;;;;10.82;63.41;100936.81;6303661;28;20048;-71
2021/09/21 07:25:08;;;;;;;4.65;2.38;;;;;;;10.75;65.03;100938.03;6270389;28;20521;-71
2021/09/21 07:28:09;;;;;;;3.53;2.28;;;;;;;10.69;62.50;100938.31;6270197;28;20072;-71
2021/09/21 07:31:10;;;;;;;4.32;2.42;;;;;;;10.81;63.05;100940.34;6270181;28;20045;-71
2021/09/21 07:34:13;;;;;;;2.60;2.00;;;;;;;10.80;63.09;100946.47;6270010;28;20462;-71
2021/09/21 07:37:14;;;;;;;3.17;2.45;;;;;;;10.85;62.29;100954.06;6286384;28;20037;-71
2021/09/21 07:40:19;;;;;;;5.45;2.70;;;;;;;10.96;63.04;100945.75;6269749;28;20041;-71
2021/09/21 07:43:20;;;;;;;3.70;2.45;;;;;;;11.09;63.59;100957.28;6270843;28;20072;-72
2021/09/21 07:46:21;;;;;;;3.13;2.22;;;;;;;11.13;63.41;100948.38;6303058;28;20502;-74
2021/09/21 07:49:22;;;;;;;3.70;2.45;;;;;;;11.21;60.86;100956.69;6302924;28;20033;-75
2021/09/21 07:52:23;;;;;;;4.05;2.38;;;;;;;11.35;61.17;100958.63;6270780;28;20068;-71
2021/09/21 07:55:24;;;;;;;6.60;2.53;;;;;;;11.50;60.29;100949.16;6270456;28;20495;-75
2021/09/21 07:58:25;;;;;;;4.68;2.60;;;;;;;11.69;60.11;100943.81;6285940;28;20399;-72
2021/09/21 08:01:26;;;;;;;2.88;2.03;;;;;;;11.92;57.65;100947.03;6302830;28;20047;-72
2021/09/21 08:04:27;;;;;;;2.53;1.95;;;;;;;11.89;54.36;100945.44;6270595;28;20095;-72
2021/09/21 08:07:29;;;;;;;3.92;2.47;;;;;;;11.86;53.76;100953.41;6269003;28;20045;-71
2021/09/21 08:10:30;;;;;;;3.38;2.28;;;;;;;11.94;53.83;100940.81;6285655;28;20107;-72
2021/09/21 08:13:30;;;;;;;2.88;2.58;;;;;;;12.12;54.60;100949.47;6285866;28;20048;-71
2021/09/21 08:16:33;;;;;;;4.03;2.70;;;;;;;12.20;54.27;100949.91;6302374;28;20064;-71
2021/09/21 08:19:35;;;;;;;2.65;2.17;;;;;;;12.40;52.38;100950.59;6270138;28;20578;-72
2021/09/21 08:22:37;;;;;;;6.45;2.40;;;;;;;12.48;52.45;100951.88;6302282;28;20128;-71
2021/09/21 08:25:37;;;;;;;3.03;2.55;;;;;;;12.58;51.77;100949.59;6302248;28;20048;-71
2021/09/21 08:28:38;;;;;;;4.32;2.40;;;;;;;12.52;52.01;100963.03;6268879;28;20041;-71
2021/09/21 08:31:40;;;;;;;4.30;2.80;;;;;;;12.49;53.93;100961.41;6302406;28;20057;-71
2021/09/21 08:34:41;;;;;;;2.90;2.10;;;;;;;12.70;51.67;100958.53;6270163;28;20044;-71
2021/09/21 08:37:42;;;;;;;3.70;2.50;;;;;;;12.83;52.09;100961.34;6269993;28;20083;-72
2021/09/21 08:40:42;;;;;;;3.63;2.72;;;;;;;12.91;52.93;100959.13;6270009;28;20041;-71
2021/09/21 08:43:43;;;;;;;3.88;2.75;;;;;;;13.17;52.15;100962.03;6285465;28;20555;-72
2021/09/21 08:46:45;;;;;;;7.35;2.90;;;;;;;13.34;51.89;100945.34;6302358;28;20045;-71
2021/09/21 08:49:47;;;;;;;4.93;2.60;;;;;;;13.44;51.24;100952.59;6285400;28;20041;-71
2021/09/21 08:52:48;;;;;;;2.70;2.13;;;;;;;13.39;50.42;100943.31;6252234;28;20447;-71
2021/09/21 08:55:50;;;;;;;3.67;2.58;;;;;;;13.53;51.37;100945.09;6301804;28;20048;-72
2021/09/21 08:58:59;;;;;;;2.65;2.33;;;;;;;13.69;50.70;100944.13;6269846;28;20037;-71
2021/09/21 09:02:18;;;;;;;3.72;2.65;;;;;;;13.55;49.77;100938.88;6268538;28;20052;-71
2021/09/21 09:05:19;;;;;;;3.45;2.70;;;;;;;13.72;50.12;100950.97;6269744;28;20033;-71
2021/09/21 09:08:33;;;;;;;3.65;2.65;;;;;;;13.97;48.98;100958.19;6269674;28;20063;-71
2021/09/21 09:11:34;;;;;;;3.17;2.33;;;;;;;14.05;49.51;100953.31;6269697;28;20064;-71
2021/09/21 09:14:38;;;;;;;2.92;2.40;;;;;;;14.21;48.16;100950.59;6301652;28;20060;-71
2021/09/21 09:17:52;;;;;;;3.90;2.67;;;;;;;14.38;47.72;100943.47;6269632;28;20041;-71
2021/09/21 09:20:53;;;;;;;3.97;2.70;;;;;;;14.54;46.93;100949.44;6273754;28;20051;-72
2021/09/21 09:23:54;;;;;;;3.20;2.90;;;;;;;14.47;46.81;100950.75;6274358;28;20041;-71
2021/09/21 09:26:55;;;;;;;5.43;2.80;;;;;;;14.36;46.44;100951.41;6274404;28;20466;-71
2021/09/21 09:30:01;;;;;;;4.35;2.78;;;;;;;14.26;47.22;100958.19;6289477;28;20410;-71
2021/09/21 09:33:03;;;;;;;3.45;2.75;;;;;;;14.49;47.13;100952.31;6274090;28;20091;-71
2021/09/21 09:36:04;;;;;;;3.17;2.67;;;;;;;14.79;47.57;100943.47;6273888;28;20060;-71
2021/09/21 09:39:06;;;;;;;6.13;2.70;;;;;;;14.91;49.90;100939.22;6273899;28;20471;-72
2021/09/21 09:42:12;;;;;;;4.35;2.58;;;;;;;15.10;48.17;100949.38;6289419;28;20144;-71
2021/09/21 09:45:13;;;;;;;4.18;2.88;;;;;;;15.28;47.78;100947.31;6273836;28;20421;-71
2021/09/21 09:48:20;;;;;;;5.45;2.90;;;;;;;15.31;44.24;100947.94;6273725;28;20500;-72
2021/09/21 09:51:21;;;;;;;3.92;2.72;;;;;;;15.47;45.81;100949.53;6256112;28;20056;-71
2021/09/21 09:54:23;;;;;;;3.35;2.75;;;;;;;15.71;44.49;100952.31;6273417;28;20053;-71
2021/09/21 09:57:24;;;;;;;3.55;2.40;;;;;;;15.80;45.81;100942.97;6272095;28;20065;-72
2021/09/21 10:00:25;;;;;;;4.20;3.00;;;;;;;15.06;46.77;100950.50;6305622;28;20384;-75
2021/09/21 10:03:28;;;;;;;3.75;2.85;;;;;;;14.91;46.47;100947.09;6288462;28;20065;-72
2021/09/21 10:06:31;;;;;;;4.95;3.03;;;;;;;14.24;49.43;100939.06;6305730;28;20114;-72
2021/09/21 10:09:33;;;;;;;;;;;;;;;15.06;49.59;100951.34;6273899;28;20406;-72
2021/09/21 10:12:36;;;;;;;2.97;2.50;;;;;;;15.47;44.52;100939.84;6272100;28;19921;-71
2021/09/21 10:15:42;;;;;;;4.90;2.88;;;;;;;15.74;46.86;100927.59;6271920;28;20328;-72
2021/09/21 10:18:44;;;;;;;4.07;3.05;;;;;;;16.06;45.95;100933.25;6273113;28;20048;-72
2021/09/21 10:21:46;;;;;;;4.93;2.78;;;;;;;15.76;45.67;100930.97;6304982;28;20052;-71
2021/09/21 10:24:50;;;;;;;;;;;;;;;15.87;44.84;100936.31;6273442;28;20037;-72
2021/09/21 10:27:52;;;;;;;3.97;2.40;;;;;;;15.73;44.92;100934.66;6272828;28;20371;-72
2021/09/21 10:30:58;;;;;;;2.60;2.20;;;;;;;15.43;46.76;100934.91;6271492;28;20515;-72
2021/09/21 10:34:10;;;;;;;3.28;2.70;;;;;;;15.86;45.31;100924.97;6272607;28;20045;-72
2021/09/21 10:37:13;;;;;;;4.30;2.67;;;;;;;16.16;43.09;100939.53;6271477;28;20044;-72
2021/09/21 10:40:13;;;;;;;5.90;2.63;;;;;;;15.83;43.79;100922.53;6271246;28;20131;-72
2021/09/21 10:43:27;;;;;;;7.53;4.90;;;;;;;16.17;43.96;100935.97;6271291;28;20037;-72
2021/09/21 10:46:28;;;;;;;5.25;4.10;;;;;;;15.50;45.35;100926.53;6272775;28;20047;-72
2021/09/21 10:49:30;;;;;;;3.50;2.80;;;;;;;15.68;44.47;100927.03;6272254;28;20033;-73
2021/09/21 10:52:30;;;;;;;3.15;2.72;;;;;;;15.85;46.22;100923.25;6271002;28;20431;-72
2021/09/21 10:55:36;;;;;;;3.65;2.20;;;;;;;16.38;45.66;100924.88;6271911;28;20045;-72
2021/09/21 10:58:38;;;;;;;4.25;2.70;;;;;;;16.73;41.51;100915.25;6270839;28;20037;-72
2021/09/21 11:01:46;;;;;;;3.10;2.75;;;;;;;17.11;41.56;100910.75;6272119;28;20100;-72
2021/09/21 11:04:47;;;;;;;5.03;2.95;;;;;;;16.93;41.70;100912.97;6271926;28;20040;-72
2021/09/21 11:07:56;;;;;;;4.85;2.83;;;;;;;16.35;41.61;100909.28;6287211;28;20107;-72
2021/09/21 11:11:01;;;;;;;4.00;2.65;;;;;;;15.71;46.72;100920.75;6271756;28;20043;-72
2021/09/21 11:14:02;;;;;;;6.82;2.67;;;;;;;15.85;43.83;100917.16;6270230;28;20059;-73
2021/09/21 11:17:04;;;;;;;3.00;2.70;;;;;;;15.63;45.22;100916.00;6271575;28;20468;-72
2021/09/21 11:20:05;;;;;;;6.15;2.70;;;;;;;16.02;45.48;100921.25;6270241;28;20041;-72
2021/09/21 11:23:06;;;;;;;3.20;2.80;;;;;;;15.89;44.33;100914.19;6270442;28;20045;-73
2021/09/21 11:26:10;;;;;;;4.15;2.75;;;;;;;15.41;45.17;100919.22;6303451;28;20045;-72
2021/09/21 11:29:16;;;;;;;3.65;3.10;;;;;;;15.21;46.33;100923.19;6271291;28;20041;-72
2021/09/21 11:32:21;;;;;;;3.72;2.67;;;;;;;15.09;46.60;100926.63;6303400;28;20041;-72
2021/09/21 11:35:22;;;;;;;3.15;2.67;;;;;;;15.18;48.22;100918.16;6271437;28;20145;-72
2021/09/21 11:38:27;;;;;;;5.75;3.10;;;;;;;15.13;47.96;100914.97;6271025;28;20044;-72
2021/09/21 11:41:28;;;;;;;6.47;3.45;;;;;;;15.03;47.92;100922.66;6285342;28;20048;-72
2021/09/21 11:44:37;;;;;;;4.32;3.03;;;;;;;15.06;48.94;100913.72;6286399;28;20073;-72
2021/09/21 11:47:49;;;;;;;5.78;3.00;;;;;;;14.80;49.94;100925.91;6303349;28;20492;-72
2021/09/21 11:50:52;;;;;;;5.78;3.63;;;;;;;14.71;50.23;100920.31;6270861;28;20041;-71
2021/09/21 11:53:56;;;;;;;4.13;3.20;;;;;;;14.54;49.42;100915.28;6270738;28;20053;-72
2021/09/21 11:56:57;;;;;;;4.65;3.65;;;;;;;14.49;50.20;100909.47;6270559;28;20068;-72
2021/09/21 11:59:58;;;;;;;6.57;3.53;;;;;;;14.39;50.84;100914.50;6302947;28;20040;-72
2021/09/21 12:03:06;;;;;;;5.35;3.63;;;;;;;14.37;51.84;100908.50;6285943;28;20503;-72
2021/09/21 12:06:06;;;;;;;13.45;6.88;;;;;;;14.69;50.50;100903.81;6270474;28;20467;-72
2021/09/21 12:09:09;;;;;;;22.92;11.07;;;;;;;15.22;49.17;100903.03;6302921;28;20040;-72
2021/09/21 12:12:21;;;;;;;10.27;5.47;;;;;;;15.01;49.84;100902.66;6269230;28;20061;-72
2021/09/21 12:15:23;;;;;;;6.63;3.63;;;;;;;14.75;50.12;100907.84;6269112;28;20052;-72
2021/09/21 12:18:26;;;;;;;7.30;3.72;;;;;;;14.59;49.92;100907.13;6270140;28;20041;-71
2021/09/21 12:21:29;;;;;;;5.53;3.72;;;;;;;14.48;51.15;100907.81;6302287;28;20037;-73
2021/09/21 12:24:31;;;;;;;7.60;3.72;;;;;;;14.41;50.76;100898.63;6270188;28;20083;-72
2021/09/21 12:27:34;;;;;;;7.82;4.10;;;;;;;14.46;52.00;100899.19;6269058;28;20041;-72
2021/09/21 12:30:41;;;;;;;5.10;3.63;;;;;;;14.33;52.58;100896.50;6270090;28;20041;-72
2021/09/21 12:33:43;;;;;;;6.13;4.07;;;;;;;14.16;51.64;100899.31;6270216;28;20458;-72
2021/09/21 12:36:45;;;;;;;5.38;3.78;;;;;;;14.08;50.61;100898.03;6269998;28;20479;-72
2021/09/21 12:39:57;;;;;;;15.93;9.55;;;;;;;14.04;51.97;100896.53;6302306;28;20053;-73
2021/09/21 12:43:03;;;;;;;5.60;4.20;;;;;;;14.23;51.33;100898.00;6285599;28;20140;-73
2021/09/21 12:46:05;;;;;;;5.03;3.55;;;;;;;14.62;51.78;100889.41;6268905;28;20128;-72
2021/09/21 12:49:06;;;;;;;4.57;3.45;;;;;;;14.83;50.05;100883.69;6302224;28;20045;-72
2021/09/21 12:52:07;;;;;;;5.50;3.80;;;;;;;15.21;47.82;100881.13;6269827;28;20063;-72
2021/09/21 12:55:08;;;;;;;7.32;3.72;;;;;;;15.48;50.12;100881.06;6271743;28;20508;-72
2021/09/21 12:58:09;;;;;;;5.88;4.05;;;;;;;15.09;48.42;100879.31;6307142;28;20463;-72
2021/09/21 13:01:12;;;;;;;6.35;4.63;;;;;;;14.76;49.52;100887.66;6307029;28;20147;-72
2021/09/21 13:04:13;;;;;;;6.57;5.47;;;;;;;14.75;50.18;100886.00;6274814;28;20048;-73
2021/09/21 13:07:13;;;;;;;5.30;4.35;;;;;;;14.87;50.29;100880.75;6306887;28;20048;-72
2021/09/21 13:10:15;;;;;;;7.88;4.20;;;;;;;14.74;50.42;100869.34;6273488;28;20045;-72
2021/09/21 13:13:16;;;;;;;5.13;3.80;;;;;;;15.06;48.72;100874.28;6306701;28;20060;-72
2021/09/21 13:16:17;;;;;;;5.65;4.00;;;;;;;15.02;50.07;100875.44;6306815;28;20041;-72
2021/09/21 13:19:20;;;;;;;7.07;3.70;;;;;;;15.01;50.89;100882.50;6305989;28;20045;-72
2021/09/21 13:22:21;;;;;;;7.38;4.70;;;;;;;14.86;49.22;100889.56;6306535;28;20052;-72
2021/09/21 13:25:22;;;;;;;6.80;4.05;;;;;;;14.95;48.48;100888.16;6273020;28;20048;-72
2021/09/21 13:28:24;;;;;;;9.50;3.97;;;;;;;14.94;49.78;100886.44;6274260;28;20071;-72
2021/09/21 13:31:27;;;;;;;7.00;4.60;;;;;;;15.00;50.47;100888.66;6289359;28;20131;-72
2021/09/21 13:34:28;;;;;;;11.77;3.97;;;;;;;14.91;51.46;100876.16;6289595;28;20049;-72
2021/09/21 13:37:29;;;;;;;7.15;3.67;;;;;;;14.87;51.58;100880.75;6273964;28;20045;-72
2021/09/21 13:40:29;;;;;;;81.70;26.00;;;;;;;14.67;50.53;100876.81;6306377;28;20094;-72
2021/09/21 13:43:30;;;;;;;28.05;9.70;;;;;;;14.74;50.80;100879.03;6272631;28;20463;-72
2021/09/21 13:46:31;;;;;;;9.10;4.38;;;;;;;14.57;49.07;100873.09;6272703;28;20060;-72
2021/09/21 13:49:32;;;;;;;4.97;3.83;;;;;;;14.51;49.06;100878.72;6289169;28;20045;-72
2021/09/21 13:52:33;;;;;;;5.10;3.88;;;;;;;14.46;49.44;100875.56;6305876;28;20047;-71
2021/09/21 13:55:34;;;;;;;4.97;3.50;;;;;;;14.43;48.79;100871.34;6304577;28;20404;-72
2021/09/21 13:58:35;;;;;;;5.35;4.03;;;;;;;14.50;49.45;100870.00;6272025;28;20044;-72
2021/09/21 14:01:36;;;;;;;6.63;4.78;;;;;;;14.60;48.93;100875.53;6272438;28;20068;-72
2021/09/21 14:04:38;;;;;;;7.10;4.25;;;;;;;14.78;48.59;100873.47;6286808;28;20047;-71
2021/09/21 14:07:40;;;;;;;7.70;4.07;;;;;;;14.84;49.56;100862.56;6270711;28;20044;-72
2021/09/21 14:10:40;;;;;;;5.60;4.22;;;;;;;14.80;50.82;100874.22;6287141;28;20605;-72
2021/09/21 14:13:41;;;;;;;6.38;4.00;;;;;;;14.69;51.92;100871.47;6270761;28;20045;-72
2021/09/21 14:16:42;;;;;;;7.10;5.00;;;;;;;14.73;52.38;100867.69;6304079;28;20044;-72